Time;durP1;ratioP1;P1;durP2;ratioP2;P2;SDS_P1;SDS_P2;PMS_P1;PMS_P2;Temp;Humidity;BMP_temperature;BMP_pressure;BME280_temperature;BME280_humidity;BME280_pressure;Samples;Min_cycle;Max_cycle;Signal;HPM_P1;HPM_P2
2022/06/24 00:01:25;;;;;;;;;;;25.10;62.80;;;;;;5050169;28;19916;-76
2022/06/24 00:03:50;;;;;;;;;;;25.10;62.90;;;;;;5045427;28;19913;-76
2022/06/24 00:06:16;;;;;;;;;;;25.00;62.70;;;;;;5043572;28;19916;-76
2022/06/24 00:08:46;;;;;;;;;;;25.00;62.70;;;;;;5045089;28;19927;-76
2022/06/24 00:11:12;;;;;;;;;;;25.00;62.80;;;;;;5048087;28;19919;-75
2022/06/24 00:13:38;;;;;;;;;;;25.00;62.60;;;;;;5059456;28;20010;-76
2022/06/24 00:16:04;;;;;;;;;;;25.00;62.70;;;;;;5061822;28;20150;-76
2022/06/24 00:18:30;;;;;;;;;;;25.00;62.90;;;;;;5047236;28;19913;-76
2022/06/24 00:20:56;;;;;;;;;;;25.00;62.90;;;;;;5045335;28;19919;-76
2022/06/24 00:23:22;;;;;;;;;;;24.90;63.20;;;;;;5043753;28;19916;-76
2022/06/24 00:25:49;;;;;;;;;;;24.90;63.10;;;;;;5045502;28;19920;-76
2022/06/24 00:28:15;;;;;;;;;;;24.80;63.20;;;;;;5045146;28;19920;-76
2022/06/24 00:30:42;;;;;;;;;;;24.80;63.10;;;;;;5051651;28;20364;-76
2022/06/24 00:33:14;;;;;;;;;;;24.80;63.10;;;;;;5061402;28;20333;-76
2022/06/24 00:35:41;;;;;;;;;;;24.80;63.20;;;;;;5045342;28;19992;-76
2022/06/24 00:38:25;;;;;;;;;;;24.70;63.00;;;;;;5052944;28;20619;-76
2022/06/24 00:40:56;;;;;;;;;;;24.70;63.00;;;;;;5044842;28;20365;-76
2022/06/24 00:43:27;;;;;;;;;;;24.70;63.10;;;;;;5056925;28;19931;-76
2022/06/24 00:45:59;;;;;;;;;;;24.70;63.10;;;;;;5061991;28;19923;-76
2022/06/24 00:48:27;;;;;;;;;;;24.70;63.10;;;;;;5063128;28;20001;-75
2022/06/24 00:50:53;;;;;;;;;;;24.70;63.20;;;;;;5052557;28;20472;-76
2022/06/24 00:53:18;;;;;;;;;;;24.70;63.30;;;;;;5045087;28;19940;-76
2022/06/24 00:55:45;;;;;;;;;;;24.60;63.10;;;;;;5054209;28;20513;-78
2022/06/24 00:58:15;;;;;;;;;;;24.60;63.30;;;;;;5063088;28;19962;-75
2022/06/24 01:00:42;;;;;;;;;;;24.50;63.20;;;;;;5062856;28;19908;-76
2022/06/24 01:03:08;;;;;;;;;;;24.50;63.30;;;;;;5063298;28;20365;-76
2022/06/24 01:05:33;;;;;;;;;;;24.50;63.10;;;;;;5061377;28;19966;-76
2022/06/24 01:08:08;;;;;;;;;;;24.50;63.20;;;;;;5045737;28;20087;-76
2022/06/24 01:10:34;;;;;;;;;;;24.50;63.30;;;;;;5044912;28;20426;-76
2022/06/24 01:12:59;;;;;;;;;;;24.50;63.30;;;;;;5047012;28;19912;-76
2022/06/24 01:15:25;;;;;;;;;;;24.50;63.40;;;;;;5044942;28;19912;-76
2022/06/24 01:17:50;;;;;;;;;;;24.50;63.40;;;;;;5044443;28;20376;-76
2022/06/24 01:20:16;;;;;;;;;;;24.50;63.20;;;;;;5043192;28;19912;-76
2022/06/24 01:22:42;;;;;;;;;;;24.40;64.20;;;;;;5058932;28;19921;-76
2022/06/24 01:25:08;;;;;;;;;;;24.40;63.60;;;;;;5046567;28;19914;-76
2022/06/24 01:27:33;;;;;;;;;;;24.40;63.60;;;;;;5043492;28;19923;-76
2022/06/24 01:29:59;;;;;;;;;;;24.30;63.60;;;;;;5045584;28;20008;-75
2022/06/24 01:32:25;;;;;;;;;;;24.30;63.60;;;;;;5052223;28;20503;-76
2022/06/24 01:34:51;;;;;;;;;;;24.30;64.20;;;;;;5062765;28;20019;-76
2022/06/24 01:37:16;;;;;;;;;;;24.30;64.00;;;;;;5062335;28;20509;-76
2022/06/24 01:39:42;;;;;;;;;;;24.30;63.90;;;;;;5052707;28;20350;-76
2022/06/24 01:42:07;;;;;;;;;;;24.30;64.00;;;;;;5046869;28;20862;-76
2022/06/24 01:44:33;;;;;;;;;;;24.30;63.90;;;;;;5048358;28;20418;-76
2022/06/24 01:46:59;;;;;;;;;;;24.30;64.10;;;;;;5043969;28;20038;-76
2022/06/24 01:49:24;;;;;;;;;;;24.20;64.00;;;;;;5044566;28;19920;-76
2022/06/24 01:51:51;;;;;;;;;;;24.20;65.20;;;;;;5044449;28;19924;-76
2022/06/24 01:54:17;;;;;;;;;;;24.10;64.80;;;;;;5044370;28;19913;-76
2022/06/24 01:56:42;;;;;;;;;;;24.10;64.60;;;;;;5045408;28;19913;-76
2022/06/24 01:59:08;;;;;;;;;;;24.10;65.20;;;;;;5061915;28;19936;-76
2022/06/24 02:01:33;;;;;;;;;;;24.10;65.00;;;;;;5057734;28;20380;-76
2022/06/24 02:03:59;;;;;;;;;;;24.10;64.90;;;;;;5049268;28;19913;-76
2022/06/24 02:06:24;;;;;;;;;;;24.10;65.10;;;;;;5044233;28;19913;-76
2022/06/24 02:08:51;;;;;;;;;;;24.10;65.10;;;;;;5044028;28;19917;-76
2022/06/24 02:14:02;;;;;;;;;;;24.00;65.20;;;;;;5061063;28;19978;-76
2022/06/24 02:16:28;;;;;;;;;;;24.00;65.30;;;;;;5065169;28;19912;-76
2022/06/24 02:18:54;;;;;;;;;;;24.00;65.40;;;;;;5047373;28;19919;-76
2022/06/24 02:21:22;;;;;;;;;;;23.90;65.90;;;;;;5062408;28;19944;-76
2022/06/24 02:23:47;;;;;;;;;;;24.00;65.80;;;;;;5066199;28;19912;-76
2022/06/24 02:26:13;;;;;;;;;;;23.90;65.70;;;;;;5064988;28;19916;-76
2022/06/24 02:28:39;;;;;;;;;;;23.90;66.10;;;;;;5065198;28;20428;-76
2022/06/24 02:31:05;;;;;;;;;;;23.90;65.80;;;;;;5052763;28;20543;-76
2022/06/24 02:33:30;;;;;;;;;;;23.90;66.80;;;;;;5047280;28;19960;-76
2022/06/24 02:35:56;;;;;;;;;;;23.90;66.30;;;;;;5047194;28;20035;-76
2022/06/24 02:38:21;;;;;;;;;;;23.90;66.10;;;;;;5051960;28;19920;-76
2022/06/24 02:40:47;;;;;;;;;;;23.80;66.20;;;;;;5047424;28;20833;-76
2022/06/24 02:43:17;;;;;;;;;;;23.80;66.20;;;;;;5057879;28;19958;-76
2022/06/24 02:45:50;;;;;;;;;;;23.80;66.10;;;;;;5063283;28;19920;-76
2022/06/24 02:48:16;;;;;;;;;;;23.80;66.10;;;;;;5046686;28;19927;-76
2022/06/24 02:50:42;;;;;;;;;;;23.80;66.20;;;;;;5047172;28;19923;-76
2022/06/24 02:53:08;;;;;;;;;;;23.80;66.60;;;;;;5047475;28;19958;-76
2022/06/24 02:55:34;;;;;;;;;;;23.80;66.90;;;;;;5047070;28;20105;-76
2022/06/24 02:58:00;;;;;;;;;;;23.80;66.90;;;;;;5046603;28;20023;-77
2022/06/24 03:00:25;;;;;;;;;;;23.70;66.50;;;;;;5050715;28;19916;-76
2022/06/24 03:02:51;;;;;;;;;;;23.70;66.50;;;;;;5055748;28;19924;-76
2022/06/24 03:05:17;;;;;;;;;;;23.70;66.60;;;;;;5045073;28;19913;-76
2022/06/24 03:07:42;;;;;;;;;;;23.70;66.60;;;;;;5046517;28;19925;-76
2022/06/24 03:10:08;;;;;;;;;;;23.70;66.60;;;;;;5045340;28;19936;-76
2022/06/24 03:12:33;;;;;;;;;;;23.70;66.60;;;;;;5050134;28;19935;-76
2022/06/24 03:14:59;;;;;;;;;;;23.60;66.40;;;;;;5046381;28;20002;-76
2022/06/24 03:17:24;;;;;;;;;;;23.60;66.60;;;;;;5054701;28;20392;-76
2022/06/24 03:19:50;;;;;;;;;;;23.60;66.80;;;;;;5054163;28;20014;-76
2022/06/24 03:22:15;;;;;;;;;;;23.60;67.10;;;;;;5051100;28;20304;-76
2022/06/24 03:24:41;;;;;;;;;;;23.60;67.00;;;;;;5050591;28;20331;-76
2022/06/24 03:27:06;;;;;;;;;;;23.60;67.10;;;;;;5045548;28;19916;-76
2022/06/24 03:29:32;;;;;;;;;;;23.60;67.30;;;;;;5045876;28;20310;-76
2022/06/24 03:31:57;;;;;;;;;;;23.60;66.90;;;;;;5048036;28;19913;-77
2022/06/24 03:34:23;;;;;;;;;;;23.60;66.90;;;;;;5046276;28;19978;-76
2022/06/24 03:36:49;;;;;;;;;;;23.50;66.90;;;;;;5049773;28;19989;-76
2022/06/24 03:39:14;;;;;;;;;;;23.50;66.80;;;;;;5049911;28;19919;-76
2022/06/24 03:41:40;;;;;;;;;;;23.50;66.80;;;;;;5045926;28;19944;-76
2022/06/24 03:44:06;;;;;;;;;;;23.50;66.60;;;;;;5045800;28;19928;-76
2022/06/24 03:46:31;;;;;;;;;;;23.50;66.90;;;;;;5053015;28;19933;-76
2022/06/24 03:48:57;;;;;;;;;;;23.50;67.10;;;;;;5058787;28;19938;-76
2022/06/24 03:51:22;;;;;;;;;;;23.50;67.20;;;;;;5046791;28;20476;-76
2022/06/24 03:53:48;;;;;;;;;;;23.40;67.00;;;;;;5049992;28;20022;-75
2022/06/24 03:56:13;;;;;;;;;;;23.40;67.00;;;;;;5045863;28;19917;-75
2022/06/24 03:58:39;;;;;;;;;;;23.40;67.30;;;;;;5045912;28;20719;-75
2022/06/24 04:01:04;;;;;;;;;;;23.40;67.20;;;;;;5055303;28;20000;-75
2022/06/24 04:03:30;;;;;;;;;;;23.40;67.20;;;;;;5064307;28;19919;-75
2022/06/24 04:05:55;;;;;;;;;;;23.30;67.90;;;;;;5063819;28;19913;-75
2022/06/24 04:08:21;;;;;;;;;;;23.30;67.40;;;;;;5063596;28;19975;-75
2022/06/24 04:10:46;;;;;;;;;;;23.30;67.50;;;;;;5056473;28;20506;-75
2022/06/24 04:13:12;;;;;;;;;;;23.30;67.60;;;;;;5062732;28;19959;-75
2022/06/24 04:15:49;;;;;;;;;;;23.30;67.70;;;;;;5063779;28;19913;-75
2022/06/24 04:18:15;;;;;;;;;;;23.20;67.60;;;;;;5063634;28;19912;-75
2022/06/24 04:20:40;;;;;;;;;;;23.20;67.60;;;;;;5063770;28;19935;-75
2022/06/24 04:23:06;;;;;;;;;;;23.20;67.70;;;;;;5045564;28;19909;-75
2022/06/24 04:25:31;;;;;;;;;;;23.20;67.60;;;;;;5051748;28;19924;-74
2022/06/24 04:27:57;;;;;;;;;;;23.20;67.70;;;;;;5045203;28;20011;-74
2022/06/24 04:30:22;;;;;;;;;;;23.10;67.70;;;;;;5049685;28;19909;-75
2022/06/24 04:32:48;;;;;;;;;;;23.10;67.90;;;;;;5063434;28;19996;-75
2022/06/24 04:35:13;;;;;;;;;;;23.10;68.10;;;;;;5062455;28;20357;-75
2022/06/24 04:37:40;;;;;;;;;;;23.10;68.30;;;;;;5063131;28;19920;-75
2022/06/24 04:40:10;;;;;;;;;;;23.10;68.10;;;;;;5079010;28;19915;-75
2022/06/24 04:42:36;;;;;;;;;;;23.10;68.10;;;;;;5056554;28;19912;-75
2022/06/24 04:45:02;;;;;;;;;;;23.00;68.10;;;;;;5044644;28;19940;-75
2022/06/24 04:47:27;;;;;;;;;;;23.00;68.00;;;;;;5059375;28;20250;-75
2022/06/24 04:49:53;;;;;;;;;;;23.00;68.20;;;;;;5063878;28;19919;-75
2022/06/24 04:52:19;;;;;;;;;;;23.00;68.40;;;;;;5062081;28;19913;-75
2022/06/24 04:54:44;;;;;;;;;;;23.00;68.40;;;;;;5063037;28;19912;-75
2022/06/24 04:57:11;;;;;;;;;;;23.00;68.50;;;;;;5063105;28;19927;-75
2022/06/24 04:59:37;;;;;;;;;;;23.00;68.70;;;;;;5054177;28;19970;-75
2022/06/24 05:02:03;;;;;;;;;;;23.00;68.80;;;;;;5061447;28;19912;-75
2022/06/24 05:04:28;;;;;;;;;;;22.90;68.70;;;;;;5063289;28;19918;-75
2022/06/24 05:06:54;;;;;;;;;;;22.90;69.00;;;;;;5063056;28;19952;-76
2022/06/24 05:09:19;;;;;;;;;;;22.90;68.90;;;;;;5061509;28;19916;-76
2022/06/24 05:11:46;;;;;;;;;;;22.90;69.00;;;;;;5062846;28;19970;-75
2022/06/24 05:14:12;;;;;;;;;;;22.90;68.90;;;;;;5061341;28;20697;-75
2022/06/24 05:16:37;;;;;;;;;;;22.80;69.90;;;;;;5057803;28;20445;-76
2022/06/24 05:19:03;;;;;;;;;;;22.90;69.40;;;;;;5063211;28;19919;-76
2022/06/24 05:21:28;;;;;;;;;;;22.80;69.30;;;;;;5061268;28;20349;-76
2022/06/24 05:23:54;;;;;;;;;;;22.80;69.60;;;;;;5063259;28;19958;-76
2022/06/24 05:26:20;;;;;;;;;;;22.80;69.60;;;;;;5062713;28;19999;-76
2022/06/24 05:28:45;;;;;;;;;;;22.80;69.60;;;;;;5063076;28;19923;-76
2022/06/24 05:31:11;;;;;;;;;;;22.80;69.60;;;;;;5054882;28;19935;-76
2022/06/24 05:33:36;;;;;;;;;;;22.80;69.50;;;;;;5048900;28;19912;-75
2022/06/24 05:36:02;;;;;;;;;;;22.80;69.50;;;;;;5043494;28;19919;-76
2022/06/24 05:38:28;;;;;;;;;;;22.80;69.60;;;;;;5051447;28;19908;-76
2022/06/24 05:40:54;;;;;;;;;;;22.70;70.00;;;;;;5062888;28;19940;-76
2022/06/24 05:43:20;;;;;;;;;;;22.70;70.10;;;;;;5062593;28;20015;-76
2022/06/24 05:45:46;;;;;;;;;;;22.70;70.00;;;;;;5062837;28;20436;-76
2022/06/24 05:48:12;;;;;;;;;;;22.70;70.10;;;;;;5066020;28;19920;-75
2022/06/24 05:50:39;;;;;;;;;;;22.70;70.20;;;;;;5053803;28;19924;-76
2022/06/24 05:55:49;;;;;;;;;;;22.70;70.30;;;;;;5048412;28;19920;-76
2022/06/24 05:58:14;;;;;;;;;;;22.70;70.40;;;;;;5047774;28;19913;-75
2022/06/24 06:00:40;;;;;;;;;;;22.70;70.40;;;;;;5054541;28;19974;-76
2022/06/24 06:03:05;;;;;;;;;;;22.70;70.80;;;;;;5048889;28;19909;-75
2022/06/24 06:05:31;;;;;;;;;;;22.70;70.40;;;;;;5052554;28;20007;-75
2022/06/24 06:07:56;;;;;;;;;;;22.70;70.60;;;;;;5066215;28;20011;-75
2022/06/24 06:10:22;;;;;;;;;;;22.70;70.40;;;;;;5065111;28;19912;-76
2022/06/24 06:12:47;;;;;;;;;;;22.70;70.60;;;;;;5066390;28;20361;-75
2022/06/24 06:15:13;;;;;;;;;;;22.70;70.50;;;;;;5066209;28;20026;-76
2022/06/24 06:17:38;;;;;;;;;;;22.60;70.60;;;;;;5065594;28;19947;-75
2022/06/24 06:20:04;;;;;;;;;;;22.70;70.40;;;;;;5066588;28;19963;-75
2022/06/24 06:22:29;;;;;;;;;;;22.60;70.80;;;;;;5065394;28;19962;-75
2022/06/24 06:24:55;;;;;;;;;;;22.70;71.30;;;;;;5047719;28;19913;-76
2022/06/24 06:27:21;;;;;;;;;;;22.70;71.10;;;;;;5051584;28;19924;-76
2022/06/24 06:29:47;;;;;;;;;;;22.60;70.90;;;;;;5066386;28;20036;-75
2022/06/24 06:32:12;;;;;;;;;;;22.60;71.10;;;;;;5066309;28;20057;-75
2022/06/24 06:34:38;;;;;;;;;;;22.60;70.90;;;;;;5066007;28;19916;-75
2022/06/24 06:37:03;;;;;;;;;;;22.60;70.50;;;;;;5063783;28;19920;-75
2022/06/24 06:39:29;;;;;;;;;;;22.70;70.80;;;;;;5060864;28;19917;-75
2022/06/24 06:41:54;;;;;;;;;;;22.70;70.90;;;;;;5047873;28;19920;-76
2022/06/24 06:44:20;;;;;;;;;;;22.70;71.10;;;;;;5046379;28;19920;-76
2022/06/24 06:46:45;;;;;;;;;;;22.70;71.00;;;;;;5055990;28;19916;-75
2022/06/24 06:49:11;;;;;;;;;;;22.80;71.20;;;;;;5065946;28;19920;-75
2022/06/24 06:51:37;;;;;;;;;;;22.80;71.80;;;;;;5066314;28;19919;-75
2022/06/24 06:54:03;;;;;;;;;;;22.90;71.80;;;;;;5066371;28;19913;-76
2022/06/24 06:56:28;;;;;;;;;;;22.90;71.30;;;;;;5053509;28;19943;-76
2022/06/24 06:58:54;;;;;;;;;;;22.90;71.70;;;;;;5047280;28;19912;-76
2022/06/24 07:01:19;;;;;;;;;;;22.90;71.70;;;;;;5058120;28;19912;-76
2022/06/24 07:03:45;;;;;;;;;;;22.90;71.60;;;;;;5064399;28;19909;-76
2022/06/24 07:06:11;;;;;;;;;;;22.90;71.50;;;;;;5063948;28;19913;-76
2022/06/24 07:08:36;;;;;;;;;;;23.00;71.70;;;;;;5064198;28;19919;-76
2022/06/24 07:11:05;;;;;;;;;;;23.00;71.70;;;;;;5064620;28;20007;-76
2022/06/24 07:13:31;;;;;;;;;;;23.00;71.70;;;;;;5053640;28;19921;-76
2022/06/24 07:15:56;;;;;;;;;;;23.10;72.10;;;;;;5049502;28;20003;-76
2022/06/24 07:18:22;;;;;;;;;;;23.10;72.10;;;;;;5063541;28;20466;-76
2022/06/24 07:20:48;;;;;;;;;;;23.10;72.30;;;;;;5063130;28;19913;-76
2022/06/24 07:23:13;;;;;;;;;;;23.20;72.20;;;;;;5061212;28;19966;-76
2022/06/24 07:25:39;;;;;;;;;;;23.20;72.10;;;;;;5052150;28;19959;-76
2022/06/24 07:28:05;;;;;;;;;;;23.20;71.90;;;;;;5061984;28;19924;-76
2022/06/24 07:30:31;;;;;;;;;;;23.30;71.90;;;;;;5052288;28;20011;-76
2022/06/24 07:32:56;;;;;;;;;;;23.30;72.00;;;;;;5050703;28;19917;-77
2022/06/24 07:35:23;;;;;;;;;;;23.40;72.30;;;;;;5044993;28;19920;-76
2022/06/24 07:37:48;;;;;;;;;;;23.40;72.00;;;;;;5048906;28;20019;-77
2022/06/24 07:40:15;;;;;;;;;;;23.40;71.90;;;;;;5047370;28;19912;-77
2022/06/24 07:42:41;;;;;;;;;;;23.40;71.60;;;;;;5046639;28;19933;-77
2022/06/24 07:45:07;;;;;;;;;;;23.50;71.60;;;;;;5050509;28;19934;-76
2022/06/24 07:47:35;;;;;;;;;;;23.50;71.50;;;;;;5064718;28;19917;-76
2022/06/24 07:50:01;;;;;;;;;;;23.50;71.60;;;;;;5057756;28;19923;-75
2022/06/24 07:52:26;;;;;;;;;;;23.60;71.60;;;;;;5051191;28;19913;-76
2022/06/24 07:56:56;;;;;;;;;;;23.60;71.50;;;;;;5056800;28;19920;-76
2022/06/24 07:57:37;;;;;;;;;;;23.60;71.60;;;;;;5058372;28;19920;-75
2022/06/24 08:00:03;;;;;;;;;;;23.60;71.60;;;;;;5055603;28;19921;-76
2022/06/24 08:02:28;;;;;;;;;;;23.70;71.70;;;;;;5058246;28;19917;-75
2022/06/24 08:04:54;;;;;;;;;;;23.70;71.60;;;;;;5049057;28;19913;-75
2022/06/24 08:07:19;;;;;;;;;;;23.80;71.40;;;;;;5041984;28;20025;-75
2022/06/24 08:09:45;;;;;;;;;;;23.90;71.40;;;;;;5053220;28;19916;-76
2022/06/24 08:12:10;;;;;;;;;;;23.90;71.20;;;;;;5057012;28;20003;-76
2022/06/24 08:14:36;;;;;;;;;;;23.90;71.00;;;;;;5054640;28;20318;-75
2022/06/24 08:17:01;;;;;;;;;;;24.00;71.20;;;;;;5052740;28;19917;-76
2022/06/24 08:19:27;;;;;;;;;;;24.00;71.00;;;;;;5050758;28;19940;-75
2022/06/24 08:21:52;;;;;;;;;;;23.90;70.90;;;;;;5044971;28;19917;-76
2022/06/24 08:24:18;;;;;;;;;;;23.90;70.90;;;;;;5062795;28;19999;-74
2022/06/24 08:26:44;;;;;;;;;;;23.90;70.90;;;;;;5062831;28;19926;-74
2022/06/24 08:29:11;;;;;;;;;;;23.90;71.00;;;;;;5059732;28;19927;-74
2022/06/24 08:31:36;;;;;;;;;;;23.90;70.80;;;;;;5056734;28;19919;-74
2022/06/24 08:34:02;;;;;;;;;;;23.90;70.70;;;;;;5062583;28;20666;-75
2022/06/24 08:36:27;;;;;;;;;;;23.80;71.00;;;;;;5050162;28;19912;-75
2022/06/24 08:38:56;;;;;;;;;;;23.80;71.00;;;;;;5057479;28;19912;-75
2022/06/24 08:41:23;;;;;;;;;;;23.80;71.00;;;;;;5058733;28;19917;-75
2022/06/24 08:43:50;;;;;;;;;;;23.70;71.00;;;;;;5053036;28;19952;-75
2022/06/24 08:46:16;;;;;;;;;;;23.70;70.90;;;;;;5058574;28;20133;-75
2022/06/24 08:48:42;;;;;;;;;;;23.70;70.60;;;;;;5046425;28;19927;-75
2022/06/24 08:51:11;;;;;;;;;;;23.70;70.80;;;;;;5047215;28;20209;-75
2022/06/24 08:53:38;;;;;;;;;;;23.60;71.00;;;;;;5062405;28;20708;-75
2022/06/24 08:56:05;;;;;;;;;;;23.60;71.20;;;;;;5063516;28;19913;-75
2022/06/24 08:58:30;;;;;;;;;;;23.50;71.10;;;;;;5063156;28;19919;-75
2022/06/24 09:00:56;;;;;;;;;;;23.50;70.90;;;;;;5047891;28;19913;-75
2022/06/24 09:03:21;;;;;;;;;;;23.40;71.20;;;;;;5041799;28;19921;-75
2022/06/24 09:05:47;;;;;;;;;;;23.40;71.10;;;;;;5045041;28;20067;-75
2022/06/24 09:08:14;;;;;;;;;;;23.40;71.10;;;;;;5049365;28;19925;-75
2022/06/24 09:13:39;;;;;;;;;;;23.40;71.10;;;;;;5061730;28;19958;-75
2022/06/24 09:16:06;;;;;;;;;;;23.40;71.10;;;;;;5058974;28;19916;-75
2022/06/24 09:18:32;;;;;;;;;;;23.30;71.00;;;;;;5056867;28;20266;-75
2022/06/24 09:20:57;;;;;;;;;;;23.30;71.10;;;;;;5046872;28;19965;-75
2022/06/24 09:23:23;;;;;;;;;;;23.30;71.20;;;;;;5049122;28;19913;-74
2022/06/24 09:25:50;;;;;;;;;;;23.20;71.30;;;;;;5051527;28;19920;-74
2022/06/24 09:28:27;;;;;;;;;;;23.20;71.40;;;;;;5060245;28;19955;-74
2022/06/24 09:31:19;;;;;;;;;;;23.20;71.10;;;;;;5065926;28;19935;-74
2022/06/24 09:33:49;;;;;;;;;;;23.10;71.40;;;;;;5065548;28;19909;-74
2022/06/24 09:36:16;;;;;;;;;;;23.10;71.50;;;;;;5065377;28;20016;-74
2022/06/24 09:39:02;;;;;;;;;;;23.00;71.60;;;;;;5062915;28;19917;-74
2022/06/24 09:41:27;;;;;;;;;;;23.00;71.60;;;;;;5060920;28;19970;-74
2022/06/24 09:43:53;;;;;;;;;;;23.00;71.40;;;;;;5063922;28;19916;-74
2022/06/24 09:46:20;;;;;;;;;;;23.00;71.50;;;;;;5065205;28;20419;-74
2022/06/24 09:48:45;;;;;;;;;;;22.90;71.60;;;;;;5067061;28;19916;-74
2022/06/24 09:51:11;;;;;;;;;;;22.90;71.50;;;;;;5066428;28;19939;-74
2022/06/24 09:53:38;;;;;;;;;;;22.90;72.00;;;;;;5064997;28;20057;-74
2022/06/24 09:56:04;;;;;;;;;;;22.90;72.10;;;;;;5065813;28;19913;-74
2022/06/24 09:58:30;;;;;;;;;;;22.90;72.10;;;;;;5064625;28;20673;-74
2022/06/24 10:00:55;;;;;;;;;;;22.80;72.20;;;;;;5066786;28;19995;-74
2022/06/24 10:03:21;;;;;;;;;;;22.80;72.20;;;;;;5060847;28;19940;-74
2022/06/24 10:05:48;;;;;;;;;;;22.80;72.20;;;;;;5048317;28;19948;-74
2022/06/24 10:08:15;;;;;;;;;;;22.80;72.20;;;;;;5047318;28;19916;-74
2022/06/24 10:10:47;;;;;;;;;;;22.80;72.40;;;;;;5062367;28;19917;-74
2022/06/24 10:13:33;;;;;;;;;;;22.80;72.30;;;;;;5061532;28;19955;-74
2022/06/24 10:16:00;;;;;;;;;;;22.90;72.20;;;;;;5061518;28;20004;-74
2022/06/24 10:18:28;;;;;;;;;;;22.90;72.40;;;;;;5060038;28;19913;-74
2022/06/24 10:20:58;;;;;;;;;;;22.90;72.60;;;;;;5049942;28;19919;-74
2022/06/24 10:23:43;;;;;;;;;;;22.90;72.80;;;;;;5063271;28;19912;-74
2022/06/24 10:26:28;;;;;;;;;;;23.00;72.60;;;;;;5049733;28;19995;-74
2022/06/24 10:29:06;;;;;;;;;;;23.10;72.60;;;;;;5064453;28;19923;-74
2022/06/24 10:31:37;;;;;;;;;;;23.10;72.60;;;;;;5065539;28;20636;-74
2022/06/24 10:34:03;;;;;;;;;;;23.20;72.30;;;;;;5077382;28;20449;-74
2022/06/24 10:36:31;;;;;;;;;;;23.30;72.20;;;;;;5065331;28;19912;-74
2022/06/24 10:39:08;;;;;;;;;;;23.40;72.10;;;;;;5056598;28;20391;-74
2022/06/24 10:41:41;;;;;;;;;;;23.50;72.00;;;;;;5063784;28;19913;-74
2022/06/24 10:44:22;;;;;;;;;;;23.60;71.90;;;;;;5064300;28;19944;-74
2022/06/24 10:47:08;;;;;;;;;;;23.60;71.70;;;;;;5065213;28;19920;-74
2022/06/24 10:52:37;;;;;;;;;;;23.90;71.60;;;;;;5064280;28;19912;-74
2022/06/24 10:55:15;;;;;;;;;;;23.90;71.60;;;;;;5065137;28;19920;-75
2022/06/24 10:57:44;;;;;;;;;;;24.00;71.30;;;;;;5046796;28;19912;-75
2022/06/24 11:00:10;;;;;;;;;;;24.00;71.50;;;;;;5048605;28;19913;-75
2022/06/24 11:02:36;;;;;;;;;;;24.10;71.10;;;;;;5064044;28;19938;-75
2022/06/24 11:05:02;;;;;;;;;;;24.20;70.80;;;;;;5054567;28;19924;-75
2022/06/24 11:07:28;;;;;;;;;;;24.30;71.00;;;;;;5045280;28;19916;-75
2022/06/24 11:09:53;;;;;;;;;;;24.40;70.60;;;;;;5047174;28;19920;-74
2022/06/24 11:12:26;;;;;;;;;;;24.50;70.70;;;;;;5047048;28;20322;-74
2022/06/24 11:14:52;;;;;;;;;;;24.60;70.80;;;;;;5047108;28;20382;-74
2022/06/24 11:17:19;;;;;;;;;;;24.70;70.60;;;;;;5060268;28;19912;-74
2022/06/24 11:19:44;;;;;;;;;;;24.80;70.30;;;;;;5065342;28;19947;-74
2022/06/24 11:22:10;;;;;;;;;;;24.90;70.80;;;;;;5058997;28;20043;-74
2022/06/24 11:24:37;;;;;;;;;;;24.90;70.20;;;;;;5052489;28;20011;-74
2022/06/24 11:27:08;;;;;;;;;;;25.00;69.90;;;;;;5065207;28;20082;-74
2022/06/24 11:29:53;;;;;;;;;;;25.10;70.20;;;;;;5058530;28;19927;-74
2022/06/24 11:32:19;;;;;;;;;;;25.20;69.70;;;;;;5046707;28;20315;-74
2022/06/24 11:34:45;;;;;;;;;;;25.30;70.20;;;;;;5048839;28;20392;-75
2022/06/24 11:37:11;;;;;;;;;;;25.30;69.90;;;;;;5046123;28;19950;-75
2022/06/24 11:39:37;;;;;;;;;;;25.30;69.40;;;;;;5049253;28;19995;-74
2022/06/24 11:42:02;;;;;;;;;;;25.40;69.60;;;;;;5046218;28;20050;-74
2022/06/24 11:44:32;;;;;;;;;;;25.50;70.20;;;;;;5049244;28;19967;-74
2022/06/24 11:46:58;;;;;;;;;;;25.50;69.30;;;;;;5056751;28;19928;-74
2022/06/24 11:49:24;;;;;;;;;;;25.60;69.20;;;;;;5064470;28;19916;-74
2022/06/24 11:51:49;;;;;;;;;;;25.70;69.10;;;;;;5057496;28;19913;-74
2022/06/24 11:54:16;;;;;;;;;;;25.80;68.70;;;;;;5045709;28;20011;-74
2022/06/24 11:56:42;;;;;;;;;;;25.90;69.00;;;;;;5047880;28;19920;-74
2022/06/24 11:59:08;;;;;;;;;;;25.90;68.90;;;;;;5046059;28;19916;-74
2022/06/24 12:01:35;;;;;;;;;;;26.00;68.80;;;;;;5058985;28;19912;-74
2022/06/24 12:04:02;;;;;;;;;;;26.00;68.60;;;;;;5057806;28;20587;-75
2022/06/24 12:06:28;;;;;;;;;;;26.00;68.60;;;;;;5052041;28;20389;-74
2022/06/24 12:08:54;;;;;;;;;;;25.90;68.50;;;;;;5048714;28;20838;-75
2022/06/24 12:11:22;;;;;;;;;;;26.00;68.50;;;;;;5049634;28;20006;-75
2022/06/24 12:14:07;;;;;;;;;;;26.00;68.40;;;;;;5045361;28;19913;-74
2022/06/24 12:16:51;;;;;;;;;;;26.10;68.60;;;;;;5056634;28;19912;-74
2022/06/24 12:19:17;;;;;;;;;;;26.20;68.30;;;;;;5047585;28;20014;-74
2022/06/24 12:21:42;;;;;;;;;;;26.40;67.90;;;;;;5044476;28;19925;-74
2022/06/24 12:24:24;;;;;;;;;;;26.30;68.00;;;;;;5045302;28;19913;-74
2022/06/24 12:26:54;;;;;;;;;;;26.40;68.00;;;;;;5061605;28;20016;-74
2022/06/24 12:29:27;;;;;;;;;;;26.50;67.70;;;;;;5060691;28;20007;-74
2022/06/24 12:31:53;;;;;;;;;;;26.40;67.90;;;;;;5047545;28;20019;-74
2022/06/24 12:34:31;;;;;;;;;;;26.50;67.80;;;;;;5047244;28;20022;-74
2022/06/24 12:36:58;;;;;;;;;;;26.60;67.60;;;;;;5059269;28;19924;-74
2022/06/24 12:39:31;;;;;;;;;;;26.70;67.50;;;;;;5050571;28;19920;-74
2022/06/24 12:41:57;;;;;;;;;;;26.80;67.90;;;;;;5044417;28;20038;-74
2022/06/24 12:44:23;;;;;;;;;;;26.80;67.00;;;;;;5044382;28;19944;-74
2022/06/24 12:52:48;;;;;;;;;;;26.90;67.00;;;;;;5045777;28;19924;-74
2022/06/24 12:55:18;;;;;;;;;;;26.80;67.10;;;;;;5060126;28;19913;-74
2022/06/24 12:57:44;;;;;;;;;;;26.70;67.30;;;;;;5062105;28;20687;-74
2022/06/24 13:00:10;;;;;;;;;;;26.70;67.40;;;;;;5062895;28;20520;-75
2022/06/24 13:02:36;;;;;;;;;;;26.70;67.70;;;;;;5061807;28;19986;-75
2022/06/24 13:05:03;;;;;;;;;;;26.70;67.70;;;;;;5061926;28;20003;-75
2022/06/24 13:07:28;;;;;;;;;;;26.60;67.70;;;;;;5053482;28;19942;-75
2022/06/24 13:09:54;;;;;;;;;;;26.80;67.60;;;;;;5044829;28;20008;-75
2022/06/24 13:12:19;;;;;;;;;;;26.90;67.20;;;;;;5045396;28;19912;-75
2022/06/24 13:14:45;;;;;;;;;;;26.90;67.30;;;;;;5044526;28;19955;-75
2022/06/24 13:17:10;;;;;;;;;;;26.80;67.30;;;;;;5056943;28;20315;-75
2022/06/24 13:19:36;;;;;;;;;;;26.90;67.20;;;;;;5063655;28;19919;-75
2022/06/24 13:22:02;;;;;;;;;;;27.00;67.00;;;;;;5060200;28;20077;-74
2022/06/24 13:24:27;;;;;;;;;;;27.20;66.70;;;;;;5050507;28;19924;-75
2022/06/24 13:26:53;;;;;;;;;;;27.30;66.40;;;;;;5050228;28;19924;-75
2022/06/24 13:29:18;;;;;;;;;;;27.30;66.30;;;;;;5050404;28;19978;-75
2022/06/24 13:31:44;;;;;;;;;;;27.40;66.40;;;;;;5058276;28;19995;-75
2022/06/24 13:34:10;;;;;;;;;;;27.50;66.10;;;;;;5061496;28;19912;-75
2022/06/24 13:36:35;;;;;;;;;;;27.40;66.10;;;;;;5062657;28;19912;-75
2022/06/24 13:39:01;;;;;;;;;;;27.40;66.10;;;;;;5060907;28;19912;-75
2022/06/24 13:41:27;;;;;;;;;;;27.40;66.20;;;;;;5046933;28;19909;-76
2022/06/24 13:43:52;;;;;;;;;;;27.40;66.50;;;;;;5044217;28;19957;-76
2022/06/24 13:46:18;;;;;;;;;;;27.50;66.10;;;;;;5049339;28;19924;-75
2022/06/24 13:48:43;;;;;;;;;;;27.60;65.90;;;;;;5061890;28;19916;-75
2022/06/24 13:51:09;;;;;;;;;;;27.70;65.70;;;;;;5062897;28;19909;-75
2022/06/24 13:53:34;;;;;;;;;;;27.70;65.60;;;;;;5059064;28;20735;-75
2022/06/24 13:56:00;;;;;;;;;;;27.70;65.50;;;;;;5044967;28;19917;-75
2022/06/24 13:58:25;;;;;;;;;;;27.80;65.40;;;;;;5044137;28;19913;-75
2022/06/24 14:00:51;;;;;;;;;;;28.00;65.40;;;;;;5057759;28;20686;-75
2022/06/24 14:03:17;;;;;;;;;;;27.90;65.20;;;;;;5062155;28;20432;-75
2022/06/24 14:05:42;;;;;;;;;;;27.90;65.40;;;;;;5048259;28;19913;-75
2022/06/24 14:08:08;;;;;;;;;;;28.00;65.20;;;;;;5046468;28;20374;-75
2022/06/24 14:10:34;;;;;;;;;;;28.10;65.10;;;;;;5066741;28;19920;-75
2022/06/24 14:12:59;;;;;;;;;;;28.20;64.90;;;;;;5056973;28;19971;-75
2022/06/24 14:15:25;;;;;;;;;;;28.30;64.60;;;;;;5048138;28;19913;-75
2022/06/24 14:17:50;;;;;;;;;;;28.40;64.50;;;;;;5065412;28;19913;-75
2022/06/24 14:20:16;;;;;;;;;;;28.50;64.20;;;;;;5048868;28;20251;-75
2022/06/24 14:25:27;;;;;;;;;;;28.70;64.00;;;;;;5066561;28;19919;-75
2022/06/24 14:27:52;;;;;;;;;;;28.60;64.10;;;;;;5065234;28;20675;-75
2022/06/24 14:30:18;;;;;;;;;;;28.50;64.30;;;;;;5062648;28;20024;-75
2022/06/24 14:32:43;;;;;;;;;;;28.60;63.90;;;;;;5047099;28;19919;-75
2022/06/24 14:35:09;;;;;;;;;;;28.70;63.70;;;;;;5045230;28;19913;-75